sensor_id;sensor_type;location;lat;lon;timestamp;temperature;humidity
19868;DHT22;10096;51.112;6.776;2022-08-19T00:00:51;20.40;99.90
19868;DHT22;10096;51.112;6.776;2022-08-19T00:03:18;20.40;97.00
19868;DHT22;10096;51.112;6.776;2022-08-19T00:05:45;20.70;4.30
19868;DHT22;10096;51.112;6.776;2022-08-19T00:08:12;20.70;1.00
19868;DHT22;10096;51.112;6.776;2022-08-19T00:10:39;20.50;93.80
19868;DHT22;10096;51.112;6.776;2022-08-19T00:13:08;20.50;1.00
19868;DHT22;10096;51.112;6.776;2022-08-19T00:15:35;20.60;1.00
19868;DHT22;10096;51.112;6.776;2022-08-19T00:18:03;20.30;1.00
19868;DHT22;10096;51.112;6.776;2022-08-19T00:20:29;20.20;99.90
19868;DHT22;10096;51.112;6.776;2022-08-19T00:22:57;20.10;99.90
19868;DHT22;10096;51.112;6.776;2022-08-19T00:25:23;20.00;1.00
19868;DHT22;10096;51.112;6.776;2022-08-19T00:27:50;20.10;95.50
19868;DHT22;10096;51.112;6.776;2022-08-19T00:30:19;19.80;99.90
19868;DHT22;10096;51.112;6.776;2022-08-19T00:32:46;19.90;99.90
19868;DHT22;10096;51.112;6.776;2022-08-19T00:35:13;20.00;99.90
19868;DHT22;10096;51.112;6.776;2022-08-19T00:37:40;20.00;99.90
19868;DHT22;10096;51.112;6.776;2022-08-19T00:40:11;19.70;99.90
19868;DHT22;10096;51.112;6.776;2022-08-19T00:42:38;19.80;99.90
19868;DHT22;10096;51.112;6.776;2022-08-19T00:45:09;19.70;99.90
19868;DHT22;10096;51.112;6.776;2022-08-19T00:47:38;19.70;1.00
19868;DHT22;10096;51.112;6.776;2022-08-19T00:50:09;19.70;99.90
19868;DHT22;10096;51.112;6.776;2022-08-19T00:52:38;19.80;1.00
19868;DHT22;10096;51.112;6.776;2022-08-19T00:55:08;19.70;99.90
19868;DHT22;10096;51.112;6.776;2022-08-19T00:57:39;19.90;1.00
19868;DHT22;10096;51.112;6.776;2022-08-19T01:00:10;19.70;1.00
19868;DHT22;10096;51.112;6.776;2022-08-19T01:02:40;19.70;1.00
19868;DHT22;10096;51.112;6.776;2022-08-19T01:05:11;19.50;1.00
19868;DHT22;10096;51.112;6.776;2022-08-19T01:07:39;19.30;88.70
19868;DHT22;10096;51.112;6.776;2022-08-19T01:10:10;19.20;1.00
19868;DHT22;10096;51.112;6.776;2022-08-19T01:12:38;19.10;1.00
19868;DHT22;10096;51.112;6.776;2022-08-19T01:15:08;19.00;1.00
19868;DHT22;10096;51.112;6.776;2022-08-19T01:17:39;19.10;1.00
19868;DHT22;10096;51.112;6.776;2022-08-19T01:20:10;19.00;7.70
19868;DHT22;10096;51.112;6.776;2022-08-19T01:22:44;19.00;8.30
19868;DHT22;10096;51.112;6.776;2022-08-19T01:25:12;19.00;12.00
19868;DHT22;10096;51.112;6.776;2022-08-19T01:27:41;19.00;99.90
19868;DHT22;10096;51.112;6.776;2022-08-19T01:30:11;19.10;1.00
19868;DHT22;10096;51.112;6.776;2022-08-19T01:32:39;19.20;1.00
19868;DHT22;10096;51.112;6.776;2022-08-19T01:35:07;19.20;1.00
19868;DHT22;10096;51.112;6.776;2022-08-19T01:37:47;19.30;1.00
19868;DHT22;10096;51.112;6.776;2022-08-19T01:40:15;19.20;1.00
19868;DHT22;10096;51.112;6.776;2022-08-19T01:42:42;19.10;1.00
19868;DHT22;10096;51.112;6.776;2022-08-19T01:45:09;18.90;1.00
19868;DHT22;10096;51.112;6.776;2022-08-19T01:47:37;18.90;1.00
19868;DHT22;10096;51.112;6.776;2022-08-19T01:50:06;18.80;1.00
19868;DHT22;10096;51.112;6.776;2022-08-19T01:52:34;18.70;1.00
19868;DHT22;10096;51.112;6.776;2022-08-19T01:55:05;18.80;99.90
19868;DHT22;10096;51.112;6.776;2022-08-19T01:57:32;18.50;99.90
19868;DHT22;10096;51.112;6.776;2022-08-19T01:59:59;18.50;1.00
19868;DHT22;10096;51.112;6.776;2022-08-19T02:02:28;18.70;1.00
19868;DHT22;10096;51.112;6.776;2022-08-19T02:04:55;18.60;1.00
19868;DHT22;10096;51.112;6.776;2022-08-19T02:07:22;18.70;1.00
19868;DHT22;10096;51.112;6.776;2022-08-19T02:09:49;18.70;1.00
19868;DHT22;10096;51.112;6.776;2022-08-19T02:12:20;19.00;1.00
19868;DHT22;10096;51.112;6.776;2022-08-19T02:14:47;18.80;99.90
19868;DHT22;10096;51.112;6.776;2022-08-19T02:17:14;19.00;99.90
19868;DHT22;10096;51.112;6.776;2022-08-19T02:19:41;18.90;1.00
19868;DHT22;10096;51.112;6.776;2022-08-19T02:22:08;18.70;99.90
19868;DHT22;10096;51.112;6.776;2022-08-19T02:24:35;18.80;1.00
19868;DHT22;10096;51.112;6.776;2022-08-19T02:27:02;19.00;7.30
19868;DHT22;10096;51.112;6.776;2022-08-19T02:29:31;19.10;1.00
19868;DHT22;10096;51.112;6.776;2022-08-19T02:31:58;19.40;1.00
19868;DHT22;10096;51.112;6.776;2022-08-19T02:34:25;19.30;1.00
19868;DHT22;10096;51.112;6.776;2022-08-19T02:36:52;19.20;99.90
19868;DHT22;10096;51.112;6.776;2022-08-19T02:39:19;19.00;99.90
19868;DHT22;10096;51.112;6.776;2022-08-19T02:41:44;18.80;99.90
19868;DHT22;10096;51.112;6.776;2022-08-19T02:44:11;18.50;99.90
19868;DHT22;10096;51.112;6.776;2022-08-19T02:46:39;18.40;99.90
19868;DHT22;10096;51.112;6.776;2022-08-19T02:49:07;18.20;1.00
19868;DHT22;10096;51.112;6.776;2022-08-19T02:51:36;18.30;1.00
19868;DHT22;10096;51.112;6.776;2022-08-19T02:54:05;18.20;1.00
19868;DHT22;10096;51.112;6.776;2022-08-19T02:56:34;18.30;1.00
19868;DHT22;10096;51.112;6.776;2022-08-19T02:59:01;18.30;99.90
19868;DHT22;10096;51.112;6.776;2022-08-19T03:01:31;18.50;1.00
19868;DHT22;10096;51.112;6.776;2022-08-19T03:04:03;18.40;99.90
19868;DHT22;10096;51.112;6.776;2022-08-19T03:06:31;18.50;1.00
19868;DHT22;10096;51.112;6.776;2022-08-19T03:09:00;18.60;1.00
19868;DHT22;10096;51.112;6.776;2022-08-19T03:11:29;18.70;1.00
19868;DHT22;10096;51.112;6.776;2022-08-19T03:13:56;18.80;99.90
19868;DHT22;10096;51.112;6.776;2022-08-19T03:16:26;18.80;99.90
19868;DHT22;10096;51.112;6.776;2022-08-19T03:18:53;18.80;99.90
19868;DHT22;10096;51.112;6.776;2022-08-19T03:21:28;18.80;99.90
19868;DHT22;10096;51.112;6.776;2022-08-19T03:23:56;18.90;99.90
19868;DHT22;10096;51.112;6.776;2022-08-19T03:26:24;18.70;1.00
19868;DHT22;10096;51.112;6.776;2022-08-19T03:28:51;18.70;1.00
19868;DHT22;10096;51.112;6.776;2022-08-19T03:31:19;18.80;1.00
19868;DHT22;10096;51.112;6.776;2022-08-19T03:33:48;18.90;99.90
19868;DHT22;10096;51.112;6.776;2022-08-19T03:36:18;19.10;1.00
19868;DHT22;10096;51.112;6.776;2022-08-19T03:38:49;19.00;99.90
19868;DHT22;10096;51.112;6.776;2022-08-19T03:41:21;19.10;1.00
19868;DHT22;10096;51.112;6.776;2022-08-19T03:43:47;19.20;1.00
19868;DHT22;10096;51.112;6.776;2022-08-19T03:46:17;19.30;1.00
19868;DHT22;10096;51.112;6.776;2022-08-19T03:48:46;19.30;1.00
19868;DHT22;10096;51.112;6.776;2022-08-19T03:51:18;19.40;1.00
19868;DHT22;10096;51.112;6.776;2022-08-19T03:53:47;19.30;99.90
19868;DHT22;10096;51.112;6.776;2022-08-19T03:56:15;19.30;99.90
19868;DHT22;10096;51.112;6.776;2022-08-19T03:58:42;19.00;99.90
19868;DHT22;10096;51.112;6.776;2022-08-19T04:01:11;19.00;99.90
19868;DHT22;10096;51.112;6.776;2022-08-19T04:03:40;19.10;1.00
19868;DHT22;10096;51.112;6.776;2022-08-19T04:06:11;19.20;99.90
19868;DHT22;10096;51.112;6.776;2022-08-19T04:08:38;19.00;1.00
19868;DHT22;10096;51.112;6.776;2022-08-19T04:11:08;18.70;1.00
19868;DHT22;10096;51.112;6.776;2022-08-19T04:13:36;18.50;1.00
19868;DHT22;10096;51.112;6.776;2022-08-19T04:16:04;18.50;14.20
19868;DHT22;10096;51.112;6.776;2022-08-19T04:18:31;18.50;99.90
19868;DHT22;10096;51.112;6.776;2022-08-19T04:20:58;18.70;99.90
19868;DHT22;10096;51.112;6.776;2022-08-19T04:23:25;18.80;99.90
19868;DHT22;10096;51.112;6.776;2022-08-19T04:25:54;18.60;99.90
19868;DHT22;10096;51.112;6.776;2022-08-19T04:28:23;18.50;1.00
19868;DHT22;10096;51.112;6.776;2022-08-19T04:30:52;18.40;99.90
19868;DHT22;10096;51.112;6.776;2022-08-19T04:33:20;18.40;99.90
19868;DHT22;10096;51.112;6.776;2022-08-19T04:35:48;18.40;1.00
19868;DHT22;10096;51.112;6.776;2022-08-19T04:38:17;18.40;1.00
19868;DHT22;10096;51.112;6.776;2022-08-19T04:40:46;18.60;1.00
19868;DHT22;10096;51.112;6.776;2022-08-19T04:43:36;18.40;99.90
19868;DHT22;10096;51.112;6.776;2022-08-19T04:46:05;18.70;99.90
19868;DHT22;10096;51.112;6.776;2022-08-19T04:48:32;18.70;99.90
19868;DHT22;10096;51.112;6.776;2022-08-19T04:50:59;18.90;1.00
19868;DHT22;10096;51.112;6.776;2022-08-19T04:53:27;18.70;99.90
19868;DHT22;10096;51.112;6.776;2022-08-19T04:55:54;18.60;1.00
19868;DHT22;10096;51.112;6.776;2022-08-19T04:58:22;18.70;1.00
19868;DHT22;10096;51.112;6.776;2022-08-19T05:00:50;18.70;1.00
19868;DHT22;10096;51.112;6.776;2022-08-19T05:03:18;18.70;1.00
19868;DHT22;10096;51.112;6.776;2022-08-19T05:05:46;18.80;1.00
19868;DHT22;10096;51.112;6.776;2022-08-19T05:08:16;19.00;99.90
19868;DHT22;10096;51.112;6.776;2022-08-19T05:10:46;19.20;94.00
19868;DHT22;10096;51.112;6.776;2022-08-19T05:13:13;19.40;99.90
19868;DHT22;10096;51.112;6.776;2022-08-19T05:15:40;19.50;99.90
19868;DHT22;10096;51.112;6.776;2022-08-19T05:18:09;19.80;99.90
19868;DHT22;10096;51.112;6.776;2022-08-19T05:20:54;19.60;99.90
19868;DHT22;10096;51.112;6.776;2022-08-19T05:23:38;19.80;99.90
19868;DHT22;10096;51.112;6.776;2022-08-19T05:26:05;19.80;99.90
19868;DHT22;10096;51.112;6.776;2022-08-19T05:28:42;20.10;99.90
19868;DHT22;10096;51.112;6.776;2022-08-19T05:31:10;20.40;99.90
19868;DHT22;10096;51.112;6.776;2022-08-19T05:33:38;20.70;99.90
19868;DHT22;10096;51.112;6.776;2022-08-19T05:36:06;20.90;99.90
19868;DHT22;10096;51.112;6.776;2022-08-19T05:38:33;21.10;1.00
19868;DHT22;10096;51.112;6.776;2022-08-19T05:41:07;21.30;99.90
19868;DHT22;10096;51.112;6.776;2022-08-19T05:43:34;21.50;99.90
19868;DHT22;10096;51.112;6.776;2022-08-19T05:46:01;21.50;99.90
19868;DHT22;10096;51.112;6.776;2022-08-19T05:48:29;21.70;99.90
19868;DHT22;10096;51.112;6.776;2022-08-19T05:51:02;21.90;1.00
19868;DHT22;10096;51.112;6.776;2022-08-19T05:53:29;22.10;1.00
19868;DHT22;10096;51.112;6.776;2022-08-19T05:55:56;22.70;1.00
19868;DHT22;10096;51.112;6.776;2022-08-19T05:58:23;23.30;99.90
19868;DHT22;10096;51.112;6.776;2022-08-19T06:00:52;24.00;1.00
19868;DHT22;10096;51.112;6.776;2022-08-19T06:03:19;24.50;1.00
19868;DHT22;10096;51.112;6.776;2022-08-19T06:05:46;25.00;1.00
19868;DHT22;10096;51.112;6.776;2022-08-19T06:08:15;25.50;10.70
19868;DHT22;10096;51.112;6.776;2022-08-19T06:10:43;25.40;1.00
19868;DHT22;10096;51.112;6.776;2022-08-19T06:13:10;24.90;1.00
19868;DHT22;10096;51.112;6.776;2022-08-19T06:15:37;24.20;99.90
19868;DHT22;10096;51.112;6.776;2022-08-19T06:18:04;23.60;1.00
19868;DHT22;10096;51.112;6.776;2022-08-19T06:20:31;23.00;93.80
19868;DHT22;10096;51.112;6.776;2022-08-19T06:22:58;22.80;99.90
19868;DHT22;10096;51.112;6.776;2022-08-19T06:25:26;23.00;99.90
19868;DHT22;10096;51.112;6.776;2022-08-19T06:27:53;23.40;99.90
19868;DHT22;10096;51.112;6.776;2022-08-19T06:30:20;23.40;1.00
19868;DHT22;10096;51.112;6.776;2022-08-19T06:32:48;23.40;1.00
19868;DHT22;10096;51.112;6.776;2022-08-19T06:35:16;23.50;99.90
19868;DHT22;10096;51.112;6.776;2022-08-19T06:37:43;23.70;99.90
19868;DHT22;10096;51.112;6.776;2022-08-19T06:40:10;23.90;99.90
19868;DHT22;10096;51.112;6.776;2022-08-19T06:42:39;24.20;1.00
19868;DHT22;10096;51.112;6.776;2022-08-19T06:45:07;24.00;1.00
19868;DHT22;10096;51.112;6.776;2022-08-19T06:47:34;24.10;99.90
19868;DHT22;10096;51.112;6.776;2022-08-19T06:50:02;23.90;99.90
19868;DHT22;10096;51.112;6.776;2022-08-19T06:52:30;24.10;99.90
19868;DHT22;10096;51.112;6.776;2022-08-19T06:54:57;24.70;99.90
19868;DHT22;10096;51.112;6.776;2022-08-19T06:57:31;25.30;1.00
19868;DHT22;10096;51.112;6.776;2022-08-19T06:59:59;25.70;1.00
19868;DHT22;10096;51.112;6.776;2022-08-19T07:02:27;26.30;1.00
19868;DHT22;10096;51.112;6.776;2022-08-19T07:04:54;26.20;1.00
19868;DHT22;10096;51.112;6.776;2022-08-19T07:07:23;26.00;1.00
19868;DHT22;10096;51.112;6.776;2022-08-19T07:09:52;25.40;99.90
19868;DHT22;10096;51.112;6.776;2022-08-19T07:12:19;24.90;1.00
19868;DHT22;10096;51.112;6.776;2022-08-19T07:14:45;24.30;1.00
19868;DHT22;10096;51.112;6.776;2022-08-19T07:17:16;23.90;99.90
19868;DHT22;10096;51.112;6.776;2022-08-19T07:19:43;23.70;99.90
19868;DHT22;10096;51.112;6.776;2022-08-19T07:22:10;23.60;99.90
19868;DHT22;10096;51.112;6.776;2022-08-19T07:24:38;23.70;99.90
19868;DHT22;10096;51.112;6.776;2022-08-19T07:27:06;23.90;1.00
19868;DHT22;10096;51.112;6.776;2022-08-19T07:29:36;24.20;1.00
19868;DHT22;10096;51.112;6.776;2022-08-19T07:32:04;25.00;1.00
19868;DHT22;10096;51.112;6.776;2022-08-19T07:34:33;25.60;1.00
19868;DHT22;10096;51.112;6.776;2022-08-19T07:37:04;26.00;99.90
19868;DHT22;10096;51.112;6.776;2022-08-19T07:39:33;25.90;1.00
19868;DHT22;10096;51.112;6.776;2022-08-19T07:42:02;25.50;1.00
19868;DHT22;10096;51.112;6.776;2022-08-19T07:44:31;25.00;1.00
19868;DHT22;10096;51.112;6.776;2022-08-19T07:46:59;24.90;1.00
19868;DHT22;10096;51.112;6.776;2022-08-19T07:49:27;24.80;99.90
19868;DHT22;10096;51.112;6.776;2022-08-19T07:51:58;24.30;1.00
19868;DHT22;10096;51.112;6.776;2022-08-19T07:54:28;24.30;1.00
19868;DHT22;10096;51.112;6.776;2022-08-19T07:56:56;24.20;1.00
19868;DHT22;10096;51.112;6.776;2022-08-19T07:59:24;24.40;1.00
19868;DHT22;10096;51.112;6.776;2022-08-19T08:01:51;24.40;1.00
19868;DHT22;10096;51.112;6.776;2022-08-19T08:04:19;24.50;1.00
19868;DHT22;10096;51.112;6.776;2022-08-19T08:07:06;25.10;6.50
19868;DHT22;10096;51.112;6.776;2022-08-19T08:09:51;26.50;1.00
19868;DHT22;10096;51.112;6.776;2022-08-19T08:12:21;27.90;1.00
19868;DHT22;10096;51.112;6.776;2022-08-19T08:14:52;28.70;99.90
19868;DHT22;10096;51.112;6.776;2022-08-19T08:17:22;28.90;1.00
19868;DHT22;10096;51.112;6.776;2022-08-19T08:19:50;29.30;99.90
19868;DHT22;10096;51.112;6.776;2022-08-19T08:22:20;29.80;1.00
19868;DHT22;10096;51.112;6.776;2022-08-19T08:25:05;30.20;1.00
19868;DHT22;10096;51.112;6.776;2022-08-19T08:27:36;30.40;99.90
19868;DHT22;10096;51.112;6.776;2022-08-19T08:30:05;31.30;99.90
19868;DHT22;10096;51.112;6.776;2022-08-19T08:32:35;31.20;1.00
19868;DHT22;10096;51.112;6.776;2022-08-19T08:35:03;31.50;99.90
19868;DHT22;10096;51.112;6.776;2022-08-19T08:37:32;31.00;99.90
19868;DHT22;10096;51.112;6.776;2022-08-19T08:40:01;30.30;99.90
19868;DHT22;10096;51.112;6.776;2022-08-19T08:42:31;29.80;99.90
19868;DHT22;10096;51.112;6.776;2022-08-19T08:45:02;28.90;1.00
19868;DHT22;10096;51.112;6.776;2022-08-19T08:47:34;28.30;1.00
19868;DHT22;10096;51.112;6.776;2022-08-19T08:50:05;28.10;75.70
19868;DHT22;10096;51.112;6.776;2022-08-19T08:52:37;27.80;99.90
19868;DHT22;10096;51.112;6.776;2022-08-19T08:55:12;27.50;99.90
19868;DHT22;10096;51.112;6.776;2022-08-19T08:57:48;27.20;99.90
19868;DHT22;10096;51.112;6.776;2022-08-19T09:00:29;27.50;1.00
19868;DHT22;10096;51.112;6.776;2022-08-19T09:02:59;27.40;99.90
19868;DHT22;10096;51.112;6.776;2022-08-19T09:05:38;27.20;99.90
19868;DHT22;10096;51.112;6.776;2022-08-19T09:08:14;27.20;1.00
19868;DHT22;10096;51.112;6.776;2022-08-19T09:10:46;26.70;99.90
19868;DHT22;10096;51.112;6.776;2022-08-19T09:13:31;26.60;99.90
19868;DHT22;10096;51.112;6.776;2022-08-19T09:16:17;26.60;99.90
19868;DHT22;10096;51.112;6.776;2022-08-19T09:18:47;26.80;1.00
19868;DHT22;10096;51.112;6.776;2022-08-19T09:21:17;27.20;99.90
19868;DHT22;10096;51.112;6.776;2022-08-19T09:23:46;27.10;99.90
19868;DHT22;10096;51.112;6.776;2022-08-19T09:26:16;27.20;99.90
19868;DHT22;10096;51.112;6.776;2022-08-19T09:28:48;27.50;41.00
19868;DHT22;10096;51.112;6.776;2022-08-19T09:31:17;27.70;99.90
19868;DHT22;10096;51.112;6.776;2022-08-19T09:33:44;27.80;99.90
19868;DHT22;10096;51.112;6.776;2022-08-19T09:36:14;28.10;99.90
19868;DHT22;10096;51.112;6.776;2022-08-19T09:38:41;28.20;99.90
19868;DHT22;10096;51.112;6.776;2022-08-19T09:41:12;28.00;1.00
19868;DHT22;10096;51.112;6.776;2022-08-19T09:43:40;28.00;1.00
19868;DHT22;10096;51.112;6.776;2022-08-19T09:46:08;28.00;1.00
19868;DHT22;10096;51.112;6.776;2022-08-19T09:48:36;28.00;1.00
19868;DHT22;10096;51.112;6.776;2022-08-19T09:51:04;28.30;1.00
19868;DHT22;10096;51.112;6.776;2022-08-19T09:53:32;28.50;1.00
19868;DHT22;10096;51.112;6.776;2022-08-19T09:55:59;28.80;1.00
19868;DHT22;10096;51.112;6.776;2022-08-19T09:58:27;29.10;1.00
19868;DHT22;10096;51.112;6.776;2022-08-19T10:00:56;29.30;1.00
19868;DHT22;10096;51.112;6.776;2022-08-19T10:03:24;29.50;1.00
19868;DHT22;10096;51.112;6.776;2022-08-19T10:05:52;29.50;99.90
19868;DHT22;10096;51.112;6.776;2022-08-19T10:08:22;29.90;1.00
19868;DHT22;10096;51.112;6.776;2022-08-19T10:10:51;29.40;1.00
19868;DHT22;10096;51.112;6.776;2022-08-19T10:13:22;29.30;1.00
19868;DHT22;10096;51.112;6.776;2022-08-19T10:15:52;29.30;1.00
19868;DHT22;10096;51.112;6.776;2022-08-19T10:18:21;29.50;1.00
19868;DHT22;10096;51.112;6.776;2022-08-19T10:20:50;29.60;1.00
19868;DHT22;10096;51.112;6.776;2022-08-19T10:23:18;29.20;1.00
19868;DHT22;10096;51.112;6.776;2022-08-19T10:25:45;29.10;1.00
19868;DHT22;10096;51.112;6.776;2022-08-19T10:28:13;28.90;1.00
19868;DHT22;10096;51.112;6.776;2022-08-19T10:30:40;28.60;1.00
19868;DHT22;10096;51.112;6.776;2022-08-19T10:33:09;28.70;1.00
19868;DHT22;10096;51.112;6.776;2022-08-19T10:35:36;28.60;99.90
19868;DHT22;10096;51.112;6.776;2022-08-19T10:38:05;28.70;1.00
19868;DHT22;10096;51.112;6.776;2022-08-19T10:40:32;28.50;1.00
19868;DHT22;10096;51.112;6.776;2022-08-19T10:42:59;28.50;1.00
19868;DHT22;10096;51.112;6.776;2022-08-19T10:45:26;28.50;1.00
19868;DHT22;10096;51.112;6.776;2022-08-19T10:47:53;28.70;1.00
19868;DHT22;10096;51.112;6.776;2022-08-19T10:50:22;28.80;1.00
19868;DHT22;10096;51.112;6.776;2022-08-19T10:53:07;28.60;1.00
19868;DHT22;10096;51.112;6.776;2022-08-19T10:55:35;29.00;1.00
19868;DHT22;10096;51.112;6.776;2022-08-19T10:58:20;28.90;1.00
19868;DHT22;10096;51.112;6.776;2022-08-19T11:00:52;29.30;1.00
19868;DHT22;10096;51.112;6.776;2022-08-19T11:03:20;29.50;1.00
19868;DHT22;10096;51.112;6.776;2022-08-19T11:05:57;29.50;1.00
19868;DHT22;10096;51.112;6.776;2022-08-19T11:08:27;29.60;1.00
19868;DHT22;10096;51.112;6.776;2022-08-19T11:10:59;29.70;1.00
19868;DHT22;10096;51.112;6.776;2022-08-19T11:13:29;29.40;1.00
19868;DHT22;10096;51.112;6.776;2022-08-19T11:15:57;29.00;1.00
19868;DHT22;10096;51.112;6.776;2022-08-19T11:18:24;29.00;1.00
19868;DHT22;10096;51.112;6.776;2022-08-19T11:20:53;28.90;1.00
19868;DHT22;10096;51.112;6.776;2022-08-19T11:23:20;29.20;1.00
19868;DHT22;10096;51.112;6.776;2022-08-19T11:25:49;29.40;1.00
19868;DHT22;10096;51.112;6.776;2022-08-19T11:28:16;29.50;1.00
19868;DHT22;10096;51.112;6.776;2022-08-19T11:30:43;29.70;1.00
19868;DHT22;10096;51.112;6.776;2022-08-19T11:33:10;29.60;1.00
19868;DHT22;10096;51.112;6.776;2022-08-19T11:35:39;29.50;39.80
19868;DHT22;10096;51.112;6.776;2022-08-19T11:38:08;29.60;12.20
19868;DHT22;10096;51.112;6.776;2022-08-19T11:40:34;29.90;1.00
19868;DHT22;10096;51.112;6.776;2022-08-19T11:43:02;29.80;98.30
19868;DHT22;10096;51.112;6.776;2022-08-19T11:45:30;29.70;1.00
19868;DHT22;10096;51.112;6.776;2022-08-19T11:47:57;29.60;1.00
19868;DHT22;10096;51.112;6.776;2022-08-19T11:50:24;29.40;99.90
19868;DHT22;10096;51.112;6.776;2022-08-19T11:52:54;29.20;1.00
19868;DHT22;10096;51.112;6.776;2022-08-19T11:55:23;29.20;99.90
19868;DHT22;10096;51.112;6.776;2022-08-19T11:57:50;29.60;1.00
19868;DHT22;10096;51.112;6.776;2022-08-19T12:00:17;29.30;99.90
19868;DHT22;10096;51.112;6.776;2022-08-19T12:02:44;29.40;1.00
19868;DHT22;10096;51.112;6.776;2022-08-19T12:05:11;29.50;1.00
19868;DHT22;10096;51.112;6.776;2022-08-19T12:07:38;29.50;48.80
19868;DHT22;10096;51.112;6.776;2022-08-19T12:10:09;29.60;71.70
19868;DHT22;10096;51.112;6.776;2022-08-19T12:12:38;29.60;1.00
19868;DHT22;10096;51.112;6.776;2022-08-19T12:15:08;29.70;1.00
19868;DHT22;10096;51.112;6.776;2022-08-19T12:17:36;29.60;90.80
19868;DHT22;10096;51.112;6.776;2022-08-19T12:20:05;29.70;1.00
19868;DHT22;10096;51.112;6.776;2022-08-19T12:22:32;30.00;1.00
19868;DHT22;10096;51.112;6.776;2022-08-19T12:25:00;30.30;99.90
19868;DHT22;10096;51.112;6.776;2022-08-19T12:27:27;30.60;99.90
19868;DHT22;10096;51.112;6.776;2022-08-19T12:29:55;30.60;47.20
19868;DHT22;10096;51.112;6.776;2022-08-19T12:32:22;30.60;98.60
19868;DHT22;10096;51.112;6.776;2022-08-19T12:34:50;30.50;76.20
19868;DHT22;10096;51.112;6.776;2022-08-19T12:37:16;30.40;54.70
19868;DHT22;10096;51.112;6.776;2022-08-19T12:39:45;30.50;14.40
19868;DHT22;10096;51.112;6.776;2022-08-19T12:42:13;30.20;1.00
19868;DHT22;10096;51.112;6.776;2022-08-19T12:44:42;29.90;48.60
19868;DHT22;10096;51.112;6.776;2022-08-19T12:47:12;29.70;71.10
19868;DHT22;10096;51.112;6.776;2022-08-19T12:49:40;29.60;1.00
19868;DHT22;10096;51.112;6.776;2022-08-19T12:52:08;29.60;99.90
19868;DHT22;10096;51.112;6.776;2022-08-19T12:54:35;29.40;1.00
19868;DHT22;10096;51.112;6.776;2022-08-19T12:57:05;29.30;1.00
19868;DHT22;10096;51.112;6.776;2022-08-19T12:59:33;29.20;99.90
19868;DHT22;10096;51.112;6.776;2022-08-19T13:02:01;29.20;99.90
19868;DHT22;10096;51.112;6.776;2022-08-19T13:04:32;28.90;87.60
19868;DHT22;10096;51.112;6.776;2022-08-19T13:07:00;29.00;99.90
19868;DHT22;10096;51.112;6.776;2022-08-19T13:09:27;29.30;75.10
19868;DHT22;10096;51.112;6.776;2022-08-19T13:11:54;29.50;98.40
19868;DHT22;10096;51.112;6.776;2022-08-19T13:14:22;29.80;99.90
19868;DHT22;10096;51.112;6.776;2022-08-19T13:16:48;30.00;99.90
19868;DHT22;10096;51.112;6.776;2022-08-19T13:19:15;30.00;99.90
19868;DHT22;10096;51.112;6.776;2022-08-19T13:21:49;29.90;99.90
19868;DHT22;10096;51.112;6.776;2022-08-19T13:24:16;29.80;99.90
19868;DHT22;10096;51.112;6.776;2022-08-19T13:26:43;29.60;99.90
19868;DHT22;10096;51.112;6.776;2022-08-19T13:29:10;29.50;99.90
19868;DHT22;10096;51.112;6.776;2022-08-19T13:31:54;29.40;65.00
19868;DHT22;10096;51.112;6.776;2022-08-19T13:34:38;29.50;99.90
19868;DHT22;10096;51.112;6.776;2022-08-19T13:37:06;29.40;99.90
19868;DHT22;10096;51.112;6.776;2022-08-19T13:39:34;29.60;67.60
19868;DHT22;10096;51.112;6.776;2022-08-19T13:42:02;29.50;94.00
19868;DHT22;10096;51.112;6.776;2022-08-19T13:44:30;29.60;99.90
19868;DHT22;10096;51.112;6.776;2022-08-19T13:47:00;29.60;99.90
19868;DHT22;10096;51.112;6.776;2022-08-19T13:49:31;29.60;97.70
19868;DHT22;10096;51.112;6.776;2022-08-19T13:51:58;29.40;99.90
19868;DHT22;10096;51.112;6.776;2022-08-19T13:54:27;29.30;99.90
19868;DHT22;10096;51.112;6.776;2022-08-19T13:56:54;29.60;95.40
19868;DHT22;10096;51.112;6.776;2022-08-19T13:59:21;29.60;99.90
19868;DHT22;10096;51.112;6.776;2022-08-19T14:01:48;29.60;99.90
19868;DHT22;10096;51.112;6.776;2022-08-19T14:04:15;29.50;92.40
19868;DHT22;10096;51.112;6.776;2022-08-19T14:06:42;29.50;7.50
19868;DHT22;10096;51.112;6.776;2022-08-19T14:09:09;29.50;45.00
19868;DHT22;10096;51.112;6.776;2022-08-19T14:11:37;29.30;99.90
19868;DHT22;10096;51.112;6.776;2022-08-19T14:14:04;29.20;90.80
19868;DHT22;10096;51.112;6.776;2022-08-19T14:16:31;29.30;99.90
19868;DHT22;10096;51.112;6.776;2022-08-19T14:18:58;29.40;99.90
19868;DHT22;10096;51.112;6.776;2022-08-19T14:21:25;29.30;99.90
19868;DHT22;10096;51.112;6.776;2022-08-19T14:23:53;29.30;99.90
19868;DHT22;10096;51.112;6.776;2022-08-19T14:26:21;29.20;99.90
19868;DHT22;10096;51.112;6.776;2022-08-19T14:28:51;29.30;99.90
19868;DHT22;10096;51.112;6.776;2022-08-19T14:31:20;29.20;99.90
19868;DHT22;10096;51.112;6.776;2022-08-19T14:33:49;29.20;99.90
19868;DHT22;10096;51.112;6.776;2022-08-19T14:36:19;29.40;99.90
19868;DHT22;10096;51.112;6.776;2022-08-19T14:38:47;29.40;99.90
19868;DHT22;10096;51.112;6.776;2022-08-19T14:41:17;29.20;99.90
19868;DHT22;10096;51.112;6.776;2022-08-19T14:43:44;29.50;99.90
19868;DHT22;10096;51.112;6.776;2022-08-19T14:46:14;29.40;99.90
19868;DHT22;10096;51.112;6.776;2022-08-19T14:48:42;29.50;99.90
19868;DHT22;10096;51.112;6.776;2022-08-19T14:51:09;29.60;99.90
19868;DHT22;10096;51.112;6.776;2022-08-19T14:53:36;29.50;99.90
19868;DHT22;10096;51.112;6.776;2022-08-19T14:56:07;29.50;99.90
19868;DHT22;10096;51.112;6.776;2022-08-19T14:58:34;29.20;99.90
19868;DHT22;10096;51.112;6.776;2022-08-19T15:01:01;29.20;99.90
19868;DHT22;10096;51.112;6.776;2022-08-19T15:03:30;29.50;99.90
19868;DHT22;10096;51.112;6.776;2022-08-19T15:05:58;29.20;99.90
19868;DHT22;10096;51.112;6.776;2022-08-19T15:08:27;28.90;99.90
19868;DHT22;10096;51.112;6.776;2022-08-19T15:10:56;28.90;99.90
19868;DHT22;10096;51.112;6.776;2022-08-19T15:13:25;28.70;99.90
19868;DHT22;10096;51.112;6.776;2022-08-19T15:15:52;28.60;99.90
19868;DHT22;10096;51.112;6.776;2022-08-19T15:18:19;28.60;99.90
19868;DHT22;10096;51.112;6.776;2022-08-19T15:20:49;28.60;99.90
19868;DHT22;10096;51.112;6.776;2022-08-19T15:23:17;28.50;99.90
19868;DHT22;10096;51.112;6.776;2022-08-19T15:25:45;28.50;99.90
19868;DHT22;10096;51.112;6.776;2022-08-19T15:28:12;28.30;99.90
19868;DHT22;10096;51.112;6.776;2022-08-19T15:30:40;28.40;99.90
19868;DHT22;10096;51.112;6.776;2022-08-19T15:33:11;28.30;99.90
19868;DHT22;10096;51.112;6.776;2022-08-19T15:35:39;28.30;99.90
19868;DHT22;10096;51.112;6.776;2022-08-19T15:38:09;28.40;99.90
19868;DHT22;10096;51.112;6.776;2022-08-19T15:40:36;28.40;99.90
19868;DHT22;10096;51.112;6.776;2022-08-19T15:43:03;28.20;99.90
19868;DHT22;10096;51.112;6.776;2022-08-19T15:45:32;28.10;99.90
19868;DHT22;10096;51.112;6.776;2022-08-19T15:47:59;28.10;99.90